sensor_id;sensor_type;location;lat;lon;timestamp;pressure;altitude;pressure_sealevel;temperature;humidity
48882;BME280;57063;51.406;-2.402;2023-03-13T00:02:08;98418.63;;;12.16;100.00
48882;BME280;57063;51.406;-2.402;2023-03-13T00:04:34;98405.66;;;12.08;100.00
48882;BME280;57063;51.406;-2.402;2023-03-13T00:06:59;98402.38;;;12.06;100.00
48882;BME280;57063;51.406;-2.402;2023-03-13T00:09:25;98413.81;;;12.21;100.00
48882;BME280;57063;51.406;-2.402;2023-03-13T00:11:51;98405.94;;;12.23;100.00
48882;BME280;57063;51.406;-2.402;2023-03-13T00:14:17;98383.97;;;12.09;100.00
48882;BME280;57063;51.406;-2.402;2023-03-13T00:16:42;98387.69;;;12.06;100.00
48882;BME280;57063;51.406;-2.402;2023-03-13T00:19:08;98399.28;;;12.20;100.00
48882;BME280;57063;51.406;-2.402;2023-03-13T00:21:34;98410.81;;;12.08;100.00
48882;BME280;57063;51.406;-2.402;2023-03-13T00:24:01;98395.88;;;12.02;100.00
48882;BME280;57063;51.406;-2.402;2023-03-13T00:26:27;98381.09;;;12.12;100.00
48882;BME280;57063;51.406;-2.402;2023-03-13T00:28:53;98399.06;;;12.13;100.00
48882;BME280;57063;51.406;-2.402;2023-03-13T00:33:47;98362.53;;;12.16;100.00
48882;BME280;57063;51.406;-2.402;2023-03-13T00:36:16;98356.41;;;11.99;100.00
48882;BME280;57063;51.406;-2.402;2023-03-13T00:38:42;98357.81;;;12.12;100.00
48882;BME280;57063;51.406;-2.402;2023-03-13T00:41:10;98355.59;;;11.81;100.00
48882;BME280;57063;51.406;-2.402;2023-03-13T00:43:37;98340.19;;;11.89;100.00
48882;BME280;57063;51.406;-2.402;2023-03-13T00:46:03;98361.91;;;11.96;100.00
48882;BME280;57063;51.406;-2.402;2023-03-13T00:48:29;98335.72;;;14.05;99.98
48882;BME280;57063;51.406;-2.402;2023-03-13T00:50:55;98328.19;;;12.50;100.00
48882;BME280;57063;51.406;-2.402;2023-03-13T00:53:20;98320.00;;;12.11;100.00
48882;BME280;57063;51.406;-2.402;2023-03-13T00:55:55;98317.44;;;12.37;100.00
48882;BME280;57063;51.406;-2.402;2023-03-13T00:58:22;98288.63;;;12.06;100.00
48882;BME280;57063;51.406;-2.402;2023-03-13T01:00:48;98310.28;;;12.05;100.00
48882;BME280;57063;51.406;-2.402;2023-03-13T01:03:14;98331.56;;;12.42;100.00
48882;BME280;57063;51.406;-2.402;2023-03-13T01:05:40;98300.94;;;12.12;100.00
48882;BME280;57063;51.406;-2.402;2023-03-13T01:08:06;98295.63;;;12.13;100.00
48882;BME280;57063;51.406;-2.402;2023-03-13T01:10:31;98318.97;;;11.86;100.00
48882;BME280;57063;51.406;-2.402;2023-03-13T01:12:57;98315.38;;;11.96;100.00
48882;BME280;57063;51.406;-2.402;2023-03-13T01:15:22;98314.34;;;11.89;100.00
48882;BME280;57063;51.406;-2.402;2023-03-13T01:17:48;98286.63;;;11.82;100.00
48882;BME280;57063;51.406;-2.402;2023-03-13T01:20:14;98311.66;;;11.81;100.00
48882;BME280;57063;51.406;-2.402;2023-03-13T01:22:39;98329.31;;;11.86;100.00
48882;BME280;57063;51.406;-2.402;2023-03-13T01:25:05;98331.00;;;11.77;100.00
48882;BME280;57063;51.406;-2.402;2023-03-13T01:27:31;98279.47;;;11.57;100.00
48882;BME280;57063;51.406;-2.402;2023-03-13T01:29:56;98299.31;;;11.75;100.00
48882;BME280;57063;51.406;-2.402;2023-03-13T01:32:21;98308.84;;;11.56;100.00
48882;BME280;57063;51.406;-2.402;2023-03-13T01:34:47;98325.03;;;11.76;100.00
48882;BME280;57063;51.406;-2.402;2023-03-13T01:37:12;98285.97;;;11.62;100.00
48882;BME280;57063;51.406;-2.402;2023-03-13T01:39:38;98292.69;;;11.54;100.00
48882;BME280;57063;51.406;-2.402;2023-03-13T01:42:04;98289.72;;;11.67;100.00
48882;BME280;57063;51.406;-2.402;2023-03-13T01:44:48;98284.56;;;11.67;100.00
48882;BME280;57063;51.406;-2.402;2023-03-13T01:47:14;98300.47;;;11.90;100.00
48882;BME280;57063;51.406;-2.402;2023-03-13T01:49:40;98278.28;;;11.70;100.00
48882;BME280;57063;51.406;-2.402;2023-03-13T01:52:09;98253.09;;;11.72;100.00
48882;BME280;57063;51.406;-2.402;2023-03-13T02:00:05;98279.88;;;12.07;100.00
48882;BME280;57063;51.406;-2.402;2023-03-13T02:02:33;98256.78;;;11.69;100.00
48882;BME280;57063;51.406;-2.402;2023-03-13T02:05:02;98249.19;;;11.68;100.00
48882;BME280;57063;51.406;-2.402;2023-03-13T02:07:37;98261.59;;;12.00;100.00
48882;BME280;57063;51.406;-2.402;2023-03-13T02:10:04;98250.13;;;11.85;100.00
48882;BME280;57063;51.406;-2.402;2023-03-13T02:12:33;98236.03;;;11.79;100.00
48882;BME280;57063;51.406;-2.402;2023-03-13T02:15:02;98237.81;;;11.78;100.00
48882;BME280;57063;51.406;-2.402;2023-03-13T02:17:28;98259.75;;;11.92;100.00
48882;BME280;57063;51.406;-2.402;2023-03-13T02:19:54;98218.38;;;11.74;100.00
48882;BME280;57063;51.406;-2.402;2023-03-13T02:28:13;98232.94;;;11.93;100.00
48882;BME280;57063;51.406;-2.402;2023-03-13T02:30:41;98237.72;;;12.06;100.00
48882;BME280;57063;51.406;-2.402;2023-03-13T02:33:07;98208.44;;;11.97;100.00
48882;BME280;57063;51.406;-2.402;2023-03-13T02:35:33;98227.31;;;11.98;100.00
48882;BME280;57063;51.406;-2.402;2023-03-13T02:38:03;98206.22;;;11.67;100.00
48882;BME280;57063;51.406;-2.402;2023-03-13T02:40:33;98215.75;;;11.66;100.00
48882;BME280;57063;51.406;-2.402;2023-03-13T02:43:02;98219.38;;;11.73;100.00
48882;BME280;57063;51.406;-2.402;2023-03-13T02:45:29;98222.97;;;11.81;100.00
48882;BME280;57063;51.406;-2.402;2023-03-13T02:47:54;98206.09;;;11.68;100.00
48882;BME280;57063;51.406;-2.402;2023-03-13T02:50:20;98222.38;;;11.87;100.00
48882;BME280;57063;51.406;-2.402;2023-03-13T02:52:47;98193.66;;;11.72;100.00
48882;BME280;57063;51.406;-2.402;2023-03-13T02:55:19;98207.56;;;11.71;100.00
48882;BME280;57063;51.406;-2.402;2023-03-13T02:57:47;98178.66;;;11.49;100.00
48882;BME280;57063;51.406;-2.402;2023-03-13T03:00:13;98177.41;;;11.53;100.00
48882;BME280;57063;51.406;-2.402;2023-03-13T03:02:41;98195.66;;;11.60;100.00
48882;BME280;57063;51.406;-2.402;2023-03-13T03:05:07;98150.91;;;11.51;100.00
48882;BME280;57063;51.406;-2.402;2023-03-13T03:07:33;98163.19;;;11.57;100.00
48882;BME280;57063;51.406;-2.402;2023-03-13T03:09:58;98156.91;;;11.60;100.00
48882;BME280;57063;51.406;-2.402;2023-03-13T03:12:23;98160.31;;;11.61;100.00
48882;BME280;57063;51.406;-2.402;2023-03-13T03:14:49;98143.81;;;11.53;100.00
48882;BME280;57063;51.406;-2.402;2023-03-13T03:17:14;98148.34;;;11.60;100.00
48882;BME280;57063;51.406;-2.402;2023-03-13T03:19:40;98121.09;;;11.65;100.00
48882;BME280;57063;51.406;-2.402;2023-03-13T03:22:05;98127.69;;;11.60;100.00
48882;BME280;57063;51.406;-2.402;2023-03-13T03:24:30;98118.97;;;11.61;100.00
48882;BME280;57063;51.406;-2.402;2023-03-13T03:26:56;98096.69;;;11.60;100.00
48882;BME280;57063;51.406;-2.402;2023-03-13T03:29:21;98094.75;;;11.62;100.00
48882;BME280;57063;51.406;-2.402;2023-03-13T03:31:47;98123.13;;;11.79;100.00
48882;BME280;57063;51.406;-2.402;2023-03-13T03:34:12;98096.69;;;11.60;100.00
48882;BME280;57063;51.406;-2.402;2023-03-13T03:36:38;98067.56;;;11.49;100.00
48882;BME280;57063;51.406;-2.402;2023-03-13T03:39:03;98098.25;;;11.52;100.00
48882;BME280;57063;51.406;-2.402;2023-03-13T03:41:29;98081.88;;;11.70;100.00
48882;BME280;57063;51.406;-2.402;2023-03-13T03:43:55;98071.16;;;11.56;100.00
48882;BME280;57063;51.406;-2.402;2023-03-13T03:46:21;98063.72;;;11.53;100.00
48882;BME280;57063;51.406;-2.402;2023-03-13T03:48:46;98061.28;;;11.52;100.00
48882;BME280;57063;51.406;-2.402;2023-03-13T03:51:11;98093.53;;;11.74;100.00
48882;BME280;57063;51.406;-2.402;2023-03-13T03:53:37;98070.84;;;11.60;100.00
48882;BME280;57063;51.406;-2.402;2023-03-13T03:56:03;98060.84;;;11.56;100.00
48882;BME280;57063;51.406;-2.402;2023-03-13T03:58:29;98076.25;;;11.48;100.00
48882;BME280;57063;51.406;-2.402;2023-03-13T04:00:58;98068.81;;;11.45;100.00
48882;BME280;57063;51.406;-2.402;2023-03-13T04:03:23;98073.59;;;11.32;100.00
48882;BME280;57063;51.406;-2.402;2023-03-13T04:05:49;98069.44;;;11.39;100.00
48882;BME280;57063;51.406;-2.402;2023-03-13T04:08:15;98084.16;;;11.21;100.00
48882;BME280;57063;51.406;-2.402;2023-03-13T04:10:40;98068.25;;;11.07;100.00
48882;BME280;57063;51.406;-2.402;2023-03-13T04:13:06;98093.53;;;11.22;100.00
48882;BME280;57063;51.406;-2.402;2023-03-13T04:15:32;98078.50;;;11.17;100.00
48882;BME280;57063;51.406;-2.402;2023-03-13T04:17:57;98066.97;;;11.11;100.00
48882;BME280;57063;51.406;-2.402;2023-03-13T04:20:22;98059.41;;;11.10;100.00
48882;BME280;57063;51.406;-2.402;2023-03-13T04:22:48;98075.06;;;11.17;100.00
48882;BME280;57063;51.406;-2.402;2023-03-13T04:25:13;98070.56;;;11.37;100.00
48882;BME280;57063;51.406;-2.402;2023-03-13T04:27:39;98061.84;;;11.38;100.00
48882;BME280;57063;51.406;-2.402;2023-03-13T04:30:05;98040.25;;;11.21;100.00
48882;BME280;57063;51.406;-2.402;2023-03-13T04:32:31;98038.66;;;11.20;100.00
48882;BME280;57063;51.406;-2.402;2023-03-13T04:34:56;98071.94;;;11.31;100.00
48882;BME280;57063;51.406;-2.402;2023-03-13T04:37:22;98037.22;;;11.25;100.00
48882;BME280;57063;51.406;-2.402;2023-03-13T04:39:47;98036.72;;;11.22;100.00
48882;BME280;57063;51.406;-2.402;2023-03-13T04:42:13;98034.91;;;11.40;100.00
48882;BME280;57063;51.406;-2.402;2023-03-13T04:44:38;98034.78;;;11.50;100.00
48882;BME280;57063;51.406;-2.402;2023-03-13T04:47:05;98054.91;;;11.64;100.00
48882;BME280;57063;51.406;-2.402;2023-03-13T04:49:30;98033.28;;;11.39;100.00
48882;BME280;57063;51.406;-2.402;2023-03-13T04:51:56;98054.34;;;11.52;100.00
48882;BME280;57063;51.406;-2.402;2023-03-13T04:54:21;98051.75;;;11.52;100.00
48882;BME280;57063;51.406;-2.402;2023-03-13T04:56:47;98051.50;;;11.64;100.00
48882;BME280;57063;51.406;-2.402;2023-03-13T04:59:14;98041.97;;;11.38;100.00
48882;BME280;57063;51.406;-2.402;2023-03-13T05:01:39;98036.22;;;11.44;100.00
48882;BME280;57063;51.406;-2.402;2023-03-13T05:04:05;98031.06;;;11.44;100.00
48882;BME280;57063;51.406;-2.402;2023-03-13T05:06:31;98053.50;;;11.44;100.00
48882;BME280;57063;51.406;-2.402;2023-03-13T05:08:56;98038.13;;;11.42;100.00
48882;BME280;57063;51.406;-2.402;2023-03-13T05:11:22;98036.53;;;11.41;99.83
48882;BME280;57063;51.406;-2.402;2023-03-13T05:13:47;98036.06;;;11.46;99.28
48882;BME280;57063;51.406;-2.402;2023-03-13T05:16:13;98030.72;;;11.39;100.00
48882;BME280;57063;51.406;-2.402;2023-03-13T05:18:38;98031.09;;;11.52;98.54
48882;BME280;57063;51.406;-2.402;2023-03-13T05:21:04;98027.00;;;11.42;99.15
48882;BME280;57063;51.406;-2.402;2023-03-13T05:23:30;98027.19;;;11.48;98.69
48882;BME280;57063;51.406;-2.402;2023-03-13T05:25:56;98033.06;;;11.59;97.44
48882;BME280;57063;51.406;-2.402;2023-03-13T05:28:21;98011.84;;;11.47;99.20
48882;BME280;57063;51.406;-2.402;2023-03-13T05:30:47;98005.13;;;11.28;99.87
48882;BME280;57063;51.406;-2.402;2023-03-13T05:33:12;97982.13;;;11.17;98.80
48882;BME280;57063;51.406;-2.402;2023-03-13T05:35:38;98007.16;;;11.42;95.91
48882;BME280;57063;51.406;-2.402;2023-03-13T05:38:03;98002.09;;;11.32;97.28
48882;BME280;57063;51.406;-2.402;2023-03-13T05:40:28;97997.41;;;11.36;95.81
48882;BME280;57063;51.406;-2.402;2023-03-13T05:42:54;98012.34;;;11.50;96.13
48882;BME280;57063;51.406;-2.402;2023-03-13T05:45:19;98011.88;;;11.55;93.92
48882;BME280;57063;51.406;-2.402;2023-03-13T05:47:45;97996.00;;;11.42;94.19
48882;BME280;57063;51.406;-2.402;2023-03-13T05:50:10;97974.13;;;11.28;93.54
48882;BME280;57063;51.406;-2.402;2023-03-13T05:52:36;98000.66;;;11.38;92.14
48882;BME280;57063;51.406;-2.402;2023-03-13T05:55:01;97988.88;;;11.35;91.06
48882;BME280;57063;51.406;-2.402;2023-03-13T05:57:27;97968.59;;;11.14;92.57
48882;BME280;57063;51.406;-2.402;2023-03-13T05:59:53;97974.88;;;11.12;90.75
48882;BME280;57063;51.406;-2.402;2023-03-13T06:02:19;97940.47;;;11.11;91.31
48882;BME280;57063;51.406;-2.402;2023-03-13T06:04:45;97948.78;;;11.23;90.34
48882;BME280;57063;51.406;-2.402;2023-03-13T06:07:11;97956.41;;;11.33;90.02
48882;BME280;57063;51.406;-2.402;2023-03-13T06:09:36;97943.16;;;11.28;90.42
48882;BME280;57063;51.406;-2.402;2023-03-13T06:12:02;97969.94;;;11.27;90.63
48882;BME280;57063;51.406;-2.402;2023-03-13T06:14:27;97975.13;;;11.27;93.80
48882;BME280;57063;51.406;-2.402;2023-03-13T06:16:53;97977.91;;;11.07;100.00
48882;BME280;57063;51.406;-2.402;2023-03-13T06:19:19;97936.91;;;10.78;100.00
48882;BME280;57063;51.406;-2.402;2023-03-13T06:21:45;97941.53;;;10.75;100.00
48882;BME280;57063;51.406;-2.402;2023-03-13T06:24:10;97949.91;;;10.50;100.00
48882;BME280;57063;51.406;-2.402;2023-03-13T06:26:36;97969.78;;;10.58;100.00
48882;BME280;57063;51.406;-2.402;2023-03-13T06:29:01;97936.84;;;10.52;100.00
48882;BME280;57063;51.406;-2.402;2023-03-13T06:31:26;97914.91;;;10.48;100.00
48882;BME280;57063;51.406;-2.402;2023-03-13T06:33:53;97966.31;;;10.67;100.00
48882;BME280;57063;51.406;-2.402;2023-03-13T06:36:19;97934.34;;;10.60;100.00
48882;BME280;57063;51.406;-2.402;2023-03-13T06:38:45;97937.09;;;10.59;100.00
48882;BME280;57063;51.406;-2.402;2023-03-13T06:41:10;97932.94;;;10.66;100.00
48882;BME280;57063;51.406;-2.402;2023-03-13T06:43:36;97930.81;;;10.61;100.00
48882;BME280;57063;51.406;-2.402;2023-03-13T06:46:04;97929.69;;;10.46;100.00
48882;BME280;57063;51.406;-2.402;2023-03-13T06:48:30;97938.47;;;10.53;100.00
48882;BME280;57063;51.406;-2.402;2023-03-13T06:50:55;97910.03;;;10.45;100.00
48882;BME280;57063;51.406;-2.402;2023-03-13T06:53:21;97919.81;;;10.59;100.00
48882;BME280;57063;51.406;-2.402;2023-03-13T06:55:47;97928.59;;;10.66;100.00
48882;BME280;57063;51.406;-2.402;2023-03-13T06:58:13;97937.09;;;10.85;100.00
48882;BME280;57063;51.406;-2.402;2023-03-13T07:00:38;97905.78;;;10.80;100.00
48882;BME280;57063;51.406;-2.402;2023-03-13T07:03:05;97890.75;;;11.01;100.00
48882;BME280;57063;51.406;-2.402;2023-03-13T07:05:31;97882.31;;;10.91;100.00
48882;BME280;57063;51.406;-2.402;2023-03-13T07:07:56;97910.09;;;11.31;99.82
48882;BME280;57063;51.406;-2.402;2023-03-13T07:10:22;97896.09;;;11.08;99.85
48882;BME280;57063;51.406;-2.402;2023-03-13T07:12:47;97896.41;;;11.05;99.75
48882;BME280;57063;51.406;-2.402;2023-03-13T07:15:13;97900.16;;;11.10;99.82
48882;BME280;57063;51.406;-2.402;2023-03-13T07:17:38;97880.53;;;10.91;99.81
48882;BME280;57063;51.406;-2.402;2023-03-13T07:20:04;97875.91;;;11.03;99.62
48882;BME280;57063;51.406;-2.402;2023-03-13T07:22:31;97892.75;;;11.16;97.64
48882;BME280;57063;51.406;-2.402;2023-03-13T07:24:56;97862.81;;;10.97;97.90
48882;BME280;57063;51.406;-2.402;2023-03-13T07:27:22;97861.69;;;10.99;97.10
48882;BME280;57063;51.406;-2.402;2023-03-13T07:29:48;97899.28;;;11.36;95.83
48882;BME280;57063;51.406;-2.402;2023-03-13T07:32:14;97873.16;;;11.39;94.68
48882;BME280;57063;51.406;-2.402;2023-03-13T07:34:39;97904.84;;;11.49;92.47
48882;BME280;57063;51.406;-2.402;2023-03-13T07:37:05;97878.78;;;11.34;95.67
48882;BME280;57063;51.406;-2.402;2023-03-13T07:39:30;97902.22;;;11.41;94.15
48882;BME280;57063;51.406;-2.402;2023-03-13T07:41:56;97899.72;;;11.66;93.09
48882;BME280;57063;51.406;-2.402;2023-03-13T07:44:21;97883.25;;;11.67;91.95
48882;BME280;57063;51.406;-2.402;2023-03-13T07:46:46;97900.88;;;11.71;92.90
48882;BME280;57063;51.406;-2.402;2023-03-13T07:49:14;97877.41;;;11.56;91.81
48882;BME280;57063;51.406;-2.402;2023-03-13T07:51:39;97901.75;;;11.96;91.04
48882;BME280;57063;51.406;-2.402;2023-03-13T07:54:05;97877.59;;;11.71;92.13
48882;BME280;57063;51.406;-2.402;2023-03-13T07:56:30;97894.72;;;11.72;90.67
48882;BME280;57063;51.406;-2.402;2023-03-13T07:58:56;97878.97;;;11.92;87.97
48882;BME280;57063;51.406;-2.402;2023-03-13T08:01:24;97884.50;;;11.63;90.44
48882;BME280;57063;51.406;-2.402;2023-03-13T08:03:50;97889.59;;;11.81;89.56
48882;BME280;57063;51.406;-2.402;2023-03-13T08:06:25;97879.47;;;11.53;92.46
48882;BME280;57063;51.406;-2.402;2023-03-13T08:08:51;97884.66;;;11.53;93.20
48882;BME280;57063;51.406;-2.402;2023-03-13T08:11:19;97886.06;;;11.39;92.40
48882;BME280;57063;51.406;-2.402;2023-03-13T08:13:46;97899.22;;;11.20;95.60
48882;BME280;57063;51.406;-2.402;2023-03-13T08:16:26;97872.28;;;11.22;99.53
48882;BME280;57063;51.406;-2.402;2023-03-13T08:18:53;97896.41;;;11.39;99.54
48882;BME280;57063;51.406;-2.402;2023-03-13T08:21:25;97911.31;;;11.53;97.06
48882;BME280;57063;51.406;-2.402;2023-03-13T08:23:58;97901.13;;;11.52;96.82
48882;BME280;57063;51.406;-2.402;2023-03-13T08:26:26;97900.41;;;11.33;97.07
48882;BME280;57063;51.406;-2.402;2023-03-13T08:28:58;97893.28;;;10.93;100.00
48882;BME280;57063;51.406;-2.402;2023-03-13T08:31:34;97893.06;;;11.12;100.00
48882;BME280;57063;51.406;-2.402;2023-03-13T08:34:00;97900.78;;;11.47;100.00
48882;BME280;57063;51.406;-2.402;2023-03-13T08:36:31;97915.56;;;11.71;100.00
48882;BME280;57063;51.406;-2.402;2023-03-13T08:38:58;97918.16;;;11.71;95.79
48882;BME280;57063;51.406;-2.402;2023-03-13T08:41:27;97896.16;;;11.59;94.20
48882;BME280;57063;51.406;-2.402;2023-03-13T08:43:54;97902.06;;;11.51;94.19
48882;BME280;57063;51.406;-2.402;2023-03-13T08:46:19;97918.41;;;11.51;92.39
48882;BME280;57063;51.406;-2.402;2023-03-13T08:48:50;97932.41;;;11.83;93.67
48882;BME280;57063;51.406;-2.402;2023-03-13T08:51:16;97905.75;;;11.83;91.74
48882;BME280;57063;51.406;-2.402;2023-03-13T08:53:42;97917.06;;;11.90;90.06
48882;BME280;57063;51.406;-2.402;2023-03-13T08:56:10;97892.38;;;12.12;89.06
48882;BME280;57063;51.406;-2.402;2023-03-13T08:58:36;97920.16;;;12.02;90.03
48882;BME280;57063;51.406;-2.402;2023-03-13T09:01:09;97908.28;;;11.66;90.35
48882;BME280;57063;51.406;-2.402;2023-03-13T09:03:36;97891.63;;;11.61;91.40
48882;BME280;57063;51.406;-2.402;2023-03-13T09:06:02;97913.88;;;11.88;91.93
48882;BME280;57063;51.406;-2.402;2023-03-13T09:08:28;97871.91;;;11.51;90.77
48882;BME280;57063;51.406;-2.402;2023-03-13T09:10:55;97914.59;;;11.80;88.99
48882;BME280;57063;51.406;-2.402;2023-03-13T09:13:22;97906.66;;;11.65;89.91
48882;BME280;57063;51.406;-2.402;2023-03-13T09:15:58;97888.34;;;11.50;89.59
48882;BME280;57063;51.406;-2.402;2023-03-13T09:18:24;97900.78;;;11.47;87.90
48882;BME280;57063;51.406;-2.402;2023-03-13T09:20:53;97899.72;;;11.66;88.68
48882;BME280;57063;51.406;-2.402;2023-03-13T09:23:19;97931.75;;;11.81;84.01
48882;BME280;57063;51.406;-2.402;2023-03-13T09:25:45;97911.78;;;12.08;82.53
48882;BME280;57063;51.406;-2.402;2023-03-13T09:28:11;97904.06;;;12.24;83.48
48882;BME280;57063;51.406;-2.402;2023-03-13T09:30:36;97913.59;;;12.32;79.49
48882;BME280;57063;51.406;-2.402;2023-03-13T09:33:02;97939.78;;;12.37;80.78
48882;BME280;57063;51.406;-2.402;2023-03-13T09:35:28;97916.00;;;12.25;81.46
48882;BME280;57063;51.406;-2.402;2023-03-13T09:37:56;97950.47;;;12.34;80.82
48882;BME280;57063;51.406;-2.402;2023-03-13T09:40:23;97938.63;;;12.23;79.13
48882;BME280;57063;51.406;-2.402;2023-03-13T09:42:56;97917.28;;;12.13;81.88
48882;BME280;57063;51.406;-2.402;2023-03-13T09:45:35;97923.28;;;12.30;79.64
48882;BME280;57063;51.406;-2.402;2023-03-13T09:48:23;97925.19;;;12.11;79.38
48882;BME280;57063;51.406;-2.402;2023-03-13T09:51:06;97942.19;;;12.38;80.04
48882;BME280;57063;51.406;-2.402;2023-03-13T09:53:45;97949.13;;;12.87;77.18
48882;BME280;57063;51.406;-2.402;2023-03-13T09:56:18;97914.06;;;12.60;75.59
48882;BME280;57063;51.406;-2.402;2023-03-13T09:59:01;97910.19;;;12.64;74.64
48882;BME280;57063;51.406;-2.402;2023-03-13T10:01:30;97925.38;;;12.75;74.71
48882;BME280;57063;51.406;-2.402;2023-03-13T10:04:19;97938.78;;;12.95;73.67
48882;BME280;57063;51.406;-2.402;2023-03-13T10:06:49;97925.06;;;12.37;74.44
48882;BME280;57063;51.406;-2.402;2023-03-13T10:09:28;97923.13;;;12.64;76.00
48882;BME280;57063;51.406;-2.402;2023-03-13T10:12:02;97926.34;;;12.74;74.62
48882;BME280;57063;51.406;-2.402;2023-03-13T10:17:15;97956.06;;;13.03;74.73
48882;BME280;57063;51.406;-2.402;2023-03-13T10:19:46;97958.16;;;12.99;75.24
48882;BME280;57063;51.406;-2.402;2023-03-13T10:22:22;97947.28;;;13.20;73.89
48882;BME280;57063;51.406;-2.402;2023-03-13T10:24:54;97957.63;;;13.45;76.26
48882;BME280;57063;51.406;-2.402;2023-03-13T10:27:21;97930.66;;;13.15;75.00
48882;BME280;57063;51.406;-2.402;2023-03-13T10:29:46;97945.94;;;13.49;74.45
48882;BME280;57063;51.406;-2.402;2023-03-13T10:32:14;97934.84;;;13.95;71.77
48882;BME280;57063;51.406;-2.402;2023-03-13T10:37:24;97930.59;;;15.90;64.35
48882;BME280;57063;51.406;-2.402;2023-03-13T10:39:51;97989.56;;;18.29;56.65
48882;BME280;57063;51.406;-2.402;2023-03-13T10:42:25;97915.16;;;16.46;57.26
48882;BME280;57063;51.406;-2.402;2023-03-13T10:44:58;97939.84;;;15.62;60.89
48882;BME280;57063;51.406;-2.402;2023-03-13T10:47:25;97922.09;;;14.39;63.23
48882;BME280;57063;51.406;-2.402;2023-03-13T10:49:55;97910.56;;;14.42;65.39
48882;BME280;57063;51.406;-2.402;2023-03-13T10:52:33;97907.63;;;14.22;63.16
48882;BME280;57063;51.406;-2.402;2023-03-13T10:55:15;97938.06;;;13.74;67.09
48882;BME280;57063;51.406;-2.402;2023-03-13T10:57:42;97929.56;;;13.57;67.42
48882;BME280;57063;51.406;-2.402;2023-03-13T11:00:36;97913.84;;;12.94;74.82
48882;BME280;57063;51.406;-2.402;2023-03-13T11:03:17;97921.28;;;13.53;71.84
48882;BME280;57063;51.406;-2.402;2023-03-13T11:05:44;97912.91;;;13.51;69.25
48882;BME280;57063;51.406;-2.402;2023-03-13T11:08:21;97937.78;;;13.04;70.62
48882;BME280;57063;51.406;-2.402;2023-03-13T11:11:04;97915.97;;;13.86;67.96
48882;BME280;57063;51.406;-2.402;2023-03-13T11:13:40;97956.09;;;14.21;66.73
48882;BME280;57063;51.406;-2.402;2023-03-13T11:16:27;97923.94;;;14.07;66.63
48882;BME280;57063;51.406;-2.402;2023-03-13T11:19:27;97947.34;;;14.45;64.73
48882;BME280;57063;51.406;-2.402;2023-03-13T11:27:29;97911.72;;;16.45;56.37
48882;BME280;57063;51.406;-2.402;2023-03-13T11:30:23;97907.72;;;15.34;59.49
48882;BME280;57063;51.406;-2.402;2023-03-13T11:32:54;97927.88;;;15.47;60.77
48882;BME280;57063;51.406;-2.402;2023-03-13T11:35:47;97917.34;;;15.84;56.85
48882;BME280;57063;51.406;-2.402;2023-03-13T11:38:32;97886.75;;;17.07;54.69
48882;BME280;57063;51.406;-2.402;2023-03-13T11:46:27;97906.38;;;20.09;47.27
48882;BME280;57063;51.406;-2.402;2023-03-13T11:57:31;97921.22;;;19.19;50.55
48882;BME280;57063;51.406;-2.402;2023-03-13T12:02:55;97931.25;;;16.13;56.23
48882;BME280;57063;51.406;-2.402;2023-03-13T12:05:22;97924.38;;;16.48;55.08
48882;BME280;57063;51.406;-2.402;2023-03-13T12:08:15;97919.97;;;16.06;57.42
48882;BME280;57063;51.406;-2.402;2023-03-13T12:10:46;97896.94;;;15.52;57.76
48882;BME280;57063;51.406;-2.402;2023-03-13T12:13:34;97936.13;;;14.68;60.68
48882;BME280;57063;51.406;-2.402;2023-03-13T12:16:09;97890.75;;;14.41;62.32
48882;BME280;57063;51.406;-2.402;2023-03-13T12:18:41;97894.88;;;14.35;62.69
48882;BME280;57063;51.406;-2.402;2023-03-13T12:21:20;97913.16;;;13.96;64.62
48882;BME280;57063;51.406;-2.402;2023-03-13T12:26:32;97902.59;;;13.97;66.69
48882;BME280;57063;51.406;-2.402;2023-03-13T12:34:35;97890.16;;;12.17;82.61
48882;BME280;57063;51.406;-2.402;2023-03-13T12:37:40;97907.22;;;11.85;98.61
48882;BME280;57063;51.406;-2.402;2023-03-13T12:42:56;97846.66;;;12.04;96.70
48882;BME280;57063;51.406;-2.402;2023-03-13T12:45:23;97865.25;;;12.16;94.94
48882;BME280;57063;51.406;-2.402;2023-03-13T12:48:08;97873.66;;;12.34;90.99
48882;BME280;57063;51.406;-2.402;2023-03-13T12:59:39;97822.78;;;12.82;83.05
48882;BME280;57063;51.406;-2.402;2023-03-13T13:02:23;97821.53;;;12.70;81.50
48882;BME280;57063;51.406;-2.402;2023-03-13T13:04:51;97822.06;;;12.41;80.05
48882;BME280;57063;51.406;-2.402;2023-03-13T13:07:26;97819.75;;;12.62;81.00
48882;BME280;57063;51.406;-2.402;2023-03-13T13:13:16;97871.25;;;13.13;83.78
48882;BME280;57063;51.406;-2.402;2023-03-13T13:15:57;97832.50;;;12.80;84.63
48882;BME280;57063;51.406;-2.402;2023-03-13T13:18:31;97812.53;;;12.41;86.82
48882;BME280;57063;51.406;-2.402;2023-03-13T13:23:38;97833.78;;;12.84;85.00
48882;BME280;57063;51.406;-2.402;2023-03-13T13:36:55;97796.13;;;13.76;83.01
48882;BME280;57063;51.406;-2.402;2023-03-13T13:39:34;97798.41;;;13.94;82.48
48882;BME280;57063;51.406;-2.402;2023-03-13T13:42:58;97789.03;;;13.69;83.11
48882;BME280;57063;51.406;-2.402;2023-03-13T13:45:28;97752.63;;;13.63;80.29
48882;BME280;57063;51.406;-2.402;2023-03-13T13:48:24;97792.78;;;13.67;81.23
48882;BME280;57063;51.406;-2.402;2023-03-13T13:53:50;97792.16;;;13.34;81.92
48882;BME280;57063;51.406;-2.402;2023-03-13T13:56:30;97812.81;;;13.11;82.09
48882;BME280;57063;51.406;-2.402;2023-03-13T14:04:33;97750.00;;;12.85;83.63
48882;BME280;57063;51.406;-2.402;2023-03-13T14:07:02;97736.75;;;12.16;86.09
48882;BME280;57063;51.406;-2.402;2023-03-13T14:09:49;97757.16;;;13.84;83.34
48882;BME280;57063;51.406;-2.402;2023-03-13T14:18:10;97734.97;;;13.12;81.31
48882;BME280;57063;51.406;-2.402;2023-03-13T14:21:00;97701.44;;;13.42;78.99
48882;BME280;57063;51.406;-2.402;2023-03-13T14:23:43;97700.38;;;13.05;85.52
48882;BME280;57063;51.406;-2.402;2023-03-13T14:28:40;97699.59;;;12.65;82.25
48882;BME280;57063;51.406;-2.402;2023-03-13T14:31:07;97678.56;;;12.68;82.49